Hampton, VA (23661)

8:59 AM EDT on August 05, 2015 (GMT -0400)
East Hampton | | Change Station
CLOSE
Current Station
Personal Weather Station
Location: Hampton, VA
Elevation: 0 ft
Nearby Weather Stations

Elev 0 ft 37.03 °N, 76.34 °W | Updated 20 seconds ago

Clear
Clear
81.0 °F
Feels Like 88 °F
N
8.9
Wind Variable Wind from West
Gusts 12.3 mph

Today
High -- | Low -- °F
--% Chance of Precip.
Yesterday
High -- | Low -- °F
Precip. -- in
6:13 AM 8:08 PM
Waning Gibbous, 67% visible
Pressure 29.96 in
Visibility 8.0 miles
Clouds Clear
Heat Index 88 °F
Dew Point 76 °F
Humidity 86%
Rainfall 0.00 in
Snow Depth Not available.
UV 2.0 out of 12
Pollen 7.40 out of 12
Air Quality Not available.
Flu Activity Not available.
METAR KLFI 051158Z AUTO 28004KT 8SM CLR 25/24 A2994 RMK AO2 SLP145 70002 T02540236 10254 20236 52007 $

More Conditions Fewer Conditions

Pressure 29.96 in
Visibility 8.0 miles
Clouds Clear
Heat Index 88 °F
Dew Point 76 °F
Humidity 86%
Rainfall 0.00 in
Snow Depth Not available.
UV 2.0 out of 12
Pollen 7.40 out of 12
Air Quality Not available.
Flu Activity Not available.
METAR KLFI 051158Z AUTO 28004KT 8SM CLR 25/24 A2994 RMK AO2 SLP145 70002 T02540236 10254 20236 52007 $

More Conditions Fewer Conditions

10-Day Weather Forecast

×

Almanac

Astronomy

Aug. 05, 2015 Rise Set
Actual Time
Civil Twilight
Nautical Twilight
Astronomical Twilight
Moon
Length of Visible Light
Length of Day
Tomorrow will be .
, % of the Moon is Illuminated

Today's Extremes

State Highs State Lows

Community

WunderPhotos

Upload Photos

1,844,175 photos uploaded!

WunderBlogs® & News

Nearby

Air Quality

  Air Quality AQ Index Pollutant
Not available.

Snow Depth

Station Depth Elevation

Earthquake Activity

City Distance Mag. Time & Date
Minimum magnitude displayed is 2.5.

Coastal Water Temperatures

Place Temperature

Stations

Nearby Weather Stations

Station Location Temp. Windchill Dew Point Humidity Wind Precip. Elev Updated Type